Time;durP1;ratioP1;P1;durP2;ratioP2;P2;SDS_P1;SDS_P2;PMS_P1;PMS_P2;Temp;Humidity;BMP_temperature;BMP_pressure;BME280_temperature;BME280_humidity;BME280_pressure;Samples;Min_cycle;Max_cycle;Signal;HPM_P1;HPM_P2
2023/09/23 00:02:22;;;;;;;11.48;7.05;;;13.90;99.90;;;;;;4938313;29;20241;-72
2023/09/23 00:04:48;;;;;;;10.88;6.10;;;13.90;99.90;;;;;;4954947;29;20206;-71
2023/09/23 00:07:17;;;;;;;9.95;5.90;;;13.90;99.90;;;;;;4936573;29;20230;-72
2023/09/23 00:09:43;;;;;;;9.73;5.72;;;13.90;99.90;;;;;;4950714;29;20206;-70
2023/09/23 00:12:09;;;;;;;8.40;5.70;;;13.90;99.90;;;;;;4954586;29;20190;-70
2023/09/23 00:14:35;;;;;;;7.38;4.75;;;13.80;99.90;;;;;;4954876;28;20178;-69
2023/09/23 00:17:03;;;;;;;6.28;4.10;;;13.90;99.90;;;;;;4954565;29;20215;-70
2023/09/23 00:19:34;;;;;;;7.15;3.60;;;13.80;99.90;;;;;;4952332;29;20191;-69
2023/09/23 00:22:02;;;;;;;3.80;3.15;;;13.80;99.90;;;;;;4955574;29;20190;-70
2023/09/23 00:24:28;;;;;;;6.07;3.60;;;13.80;99.90;;;;;;4954961;29;20187;-70
2023/09/23 00:26:59;;;;;;;6.93;4.30;;;13.80;99.90;;;;;;4955670;29;20198;-70
2023/09/23 00:29:28;;;;;;;9.82;4.95;;;13.70;99.90;;;;;;4921864;29;20871;-71
2023/09/23 00:31:54;;;;;;;7.82;4.80;;;13.70;99.90;;;;;;4954950;29;20694;-70
2023/09/23 00:34:23;;;;;;;7.35;4.82;;;13.70;99.90;;;;;;4954822;29;20195;-71
2023/09/23 00:36:51;;;;;;;9.50;5.22;;;13.70;99.90;;;;;;4937769;29;20210;-69
2023/09/23 00:39:17;;;;;;;8.60;4.80;;;13.70;99.90;;;;;;4952286;29;20194;-71
2023/09/23 00:41:43;;;;;;;7.55;4.55;;;13.70;99.90;;;;;;4950686;29;20221;-71
2023/09/23 00:44:10;;;;;;;6.55;4.38;;;13.70;99.90;;;;;;4941276;29;20183;-71
2023/09/23 00:46:37;;;;;;;7.80;4.05;;;13.70;99.90;;;;;;4951399;29;20194;-70
2023/09/23 00:49:09;;;;;;;5.72;3.90;;;13.60;99.90;;;;;;4948931;29;20213;-70
2023/09/23 00:51:37;;;;;;;6.07;3.67;;;13.60;99.90;;;;;;4951426;29;20578;-72
2023/09/23 00:54:07;;;;;;;6.68;3.70;;;13.60;99.90;;;;;;4930746;29;20274;-70
2023/09/23 00:56:34;;;;;;;7.32;3.53;;;13.60;99.90;;;;;;4950907;29;20720;-71
2023/09/23 00:59:06;;;;;;;6.25;3.17;;;13.60;99.90;;;;;;4951349;29;20290;-70
2023/09/23 01:01:32;;;;;;;3.53;2.63;;;13.60;99.90;;;;;;4946770;28;20187;-71
2023/09/23 01:03:58;;;;;;;2.97;2.20;;;13.60;99.90;;;;;;4949584;29;20202;-70
2023/09/23 01:06:27;;;;;;;4.43;2.53;;;13.50;99.90;;;;;;4916354;29;20300;-72
2023/09/23 01:08:57;;;;;;;2.97;2.50;;;13.50;99.90;;;;;;4948601;29;20695;-71
2023/09/23 01:11:25;;;;;;;5.00;2.83;;;13.40;99.90;;;;;;4948414;29;20225;-72
2023/09/23 01:13:52;;;;;;;4.72;2.75;;;13.50;99.90;;;;;;4953012;29;20198;-70
2023/09/23 01:16:19;;;;;;;10.35;3.20;;;13.40;99.90;;;;;;4952892;29;20225;-71
2023/09/23 01:18:45;;;;;;;5.80;3.10;;;13.40;99.90;;;;;;4954683;29;20195;-71
2023/09/23 01:21:12;;;;;;;7.05;2.55;;;13.40;99.90;;;;;;4954069;29;20560;-71
2023/09/23 01:23:39;;;;;;;2.78;1.95;;;13.40;99.90;;;;;;4951843;29;20270;-72
2023/09/23 01:26:05;;;;;;;4.50;2.20;;;13.40;99.90;;;;;;4933358;29;20269;-72
2023/09/23 01:28:32;;;;;;;3.30;1.77;;;13.40;99.90;;;;;;4954565;29;20268;-72
2023/09/23 01:31:00;;;;;;;3.20;2.25;;;13.40;99.90;;;;;;4936577;29;20241;-69
2023/09/23 01:33:27;;;;;;;4.07;1.90;;;13.30;99.90;;;;;;4936154;29;20389;-70
2023/09/23 01:35:57;;;;;;;4.22;2.50;;;13.30;99.90;;;;;;4935963;29;20694;-69
2023/09/23 01:38:26;;;;;;;5.45;2.08;;;13.30;99.90;;;;;;4936894;29;20222;-69
2023/09/23 01:40:53;;;;;;;3.35;2.30;;;13.30;99.90;;;;;;4920778;29;20548;-69
2023/09/23 01:43:19;;;;;;;3.05;2.30;;;13.20;99.90;;;;;;4953998;29;20330;-71
2023/09/23 01:45:45;;;;;;;4.65;2.33;;;13.20;99.90;;;;;;4949293;29;20190;-70
2023/09/23 01:48:11;;;;;;;4.45;2.35;;;13.20;99.90;;;;;;4936896;29;20253;-71
2023/09/23 01:50:36;;;;;;;3.13;2.00;;;13.10;99.90;;;;;;4952653;29;20236;-70
2023/09/23 01:53:03;;;;;;;4.97;1.90;;;13.10;99.90;;;;;;4952694;29;20193;-71
2023/09/23 01:55:30;;;;;;;3.70;2.30;;;13.10;99.90;;;;;;4952745;29;20218;-69
2023/09/23 01:57:56;;;;;;;2.60;1.88;;;13.10;99.90;;;;;;4936591;29;20216;-70
2023/09/23 02:00:28;;;;;;;2.67;2.15;;;13.10;99.90;;;;;;4920829;29;20652;-70
2023/09/23 02:02:55;;;;;;;4.03;2.13;;;13.10;99.90;;;;;;4936019;29;20186;-70
2023/09/23 02:05:24;;;;;;;3.05;1.85;;;13.10;99.90;;;;;;4951589;28;20187;-71
2023/09/23 02:07:51;;;;;;;2.95;1.88;;;13.10;99.90;;;;;;4953518;29;20254;-71
2023/09/23 02:10:17;;;;;;;2.72;1.80;;;13.00;99.90;;;;;;4953895;29;20615;-72
2023/09/23 02:12:44;;;;;;;3.72;1.88;;;13.00;99.90;;;;;;4936394;29;20193;-71
2023/09/23 02:15:17;;;;;;;2.33;1.65;;;13.00;99.90;;;;;;4936481;29;20824;-70
2023/09/23 02:17:45;;;;;;;3.67;1.92;;;13.10;99.90;;;;;;4916313;29;20544;-70
2023/09/23 02:20:17;;;;;;;2.65;1.88;;;13.10;99.90;;;;;;4953356;29;20191;-69
2023/09/23 02:22:43;;;;;;;4.63;2.05;;;13.10;99.90;;;;;;4953527;29;20246;-70
2023/09/23 02:25:12;;;;;;;2.60;2.08;;;13.10;99.90;;;;;;4936430;29;20199;-69
2023/09/23 02:27:38;;;;;;;5.35;2.20;;;13.10;99.90;;;;;;4952445;29;20190;-73
2023/09/23 02:30:07;;;;;;;4.22;2.60;;;13.00;99.90;;;;;;4920305;29;20686;-72
2023/09/23 02:32:34;;;;;;;4.47;2.55;;;13.00;99.90;;;;;;4953100;29;20182;-72
2023/09/23 02:35:00;;;;;;;5.25;3.13;;;13.00;99.90;;;;;;4952882;29;20631;-73
2023/09/23 02:37:27;;;;;;;4.45;3.42;;;13.00;99.90;;;;;;4935125;29;20787;-73
2023/09/23 02:39:53;;;;;;;7.13;4.05;;;12.90;99.90;;;;;;4920105;29;20198;-73
2023/09/23 02:42:19;;;;;;;5.55;4.30;;;12.90;99.90;;;;;;4957280;29;20676;-72
2023/09/23 02:44:45;;;;;;;9.35;4.85;;;12.90;99.90;;;;;;4940235;29;20198;-72
2023/09/23 02:47:11;;;;;;;8.48;4.63;;;12.90;99.90;;;;;;4920709;29;20264;-72
2023/09/23 02:49:37;;;;;;;7.22;5.10;;;12.90;99.90;;;;;;4946865;29;20191;-73
2023/09/23 02:52:06;;;;;;;8.02;6.05;;;12.90;99.90;;;;;;4952123;29;20214;-73
2023/09/23 02:54:32;;;;;;;11.20;6.72;;;12.80;99.90;;;;;;4957089;29;20221;-73
2023/09/23 02:56:57;;;;;;;9.55;7.15;;;12.80;99.90;;;;;;4956390;29;20658;-72
2023/09/23 02:59:29;;;;;;;11.48;8.07;;;12.80;99.90;;;;;;4938550;29;20207;-72
2023/09/23 03:01:57;;;;;;;12.45;7.93;;;12.80;99.90;;;;;;4952801;29;20182;-71
2023/09/23 03:04:24;;;;;;;10.55;8.18;;;12.80;99.90;;;;;;4939435;29;20686;-72
2023/09/23 03:06:59;;;;;;;11.95;8.82;;;12.80;99.90;;;;;;4956030;29;20186;-72
2023/09/23 03:09:26;;;;;;;12.20;9.50;;;12.80;99.90;;;;;;4938519;29;20261;-73
2023/09/23 03:11:58;;;;;;;11.23;9.43;;;12.80;99.90;;;;;;4952054;29;20198;-72
2023/09/23 03:14:36;;;;;;;11.38;9.20;;;12.80;99.90;;;;;;4965396;28;20206;-73
2023/09/23 03:17:03;;;;;;;13.15;9.73;;;12.80;99.90;;;;;;4952961;29;20270;-73
2023/09/23 03:19:31;;;;;;;15.57;10.30;;;12.80;99.90;;;;;;4952672;28;20290;-72
2023/09/23 03:21:58;;;;;;;13.68;10.30;;;12.80;99.90;;;;;;4955664;29;20628;-73
2023/09/23 03:24:26;;;;;;;12.82;10.48;;;12.70;99.90;;;;;;4939018;29;20183;-72
2023/09/23 03:26:54;;;;;;;15.68;10.35;;;12.80;99.90;;;;;;4938507;29;20640;-72
2023/09/23 03:29:22;;;;;;;13.30;10.65;;;12.70;99.90;;;;;;4966157;28;20206;-72
2023/09/23 03:31:49;;;;;;;15.45;11.10;;;12.70;99.90;;;;;;4939099;29;20203;-72
2023/09/23 03:34:16;;;;;;;14.07;10.82;;;12.70;99.90;;;;;;4954657;29;20548;-72
2023/09/23 03:36:44;;;;;;;17.40;11.90;;;12.70;99.90;;;;;;4938768;29;20210;-71
2023/09/23 03:39:11;;;;;;;17.52;10.73;;;12.60;99.90;;;;;;4937179;29;20186;-72
2023/09/23 03:41:39;;;;;;;14.05;10.90;;;12.60;99.90;;;;;;4955341;28;20182;-72
2023/09/23 03:44:07;;;;;;;15.80;11.00;;;12.60;99.90;;;;;;4938919;29;20640;-72
2023/09/23 03:46:33;;;;;;;15.48;11.55;;;12.60;99.90;;;;;;4939459;29;20255;-72
2023/09/23 03:49:00;;;;;;;15.25;11.43;;;12.50;99.90;;;;;;4954278;28;20190;-72
2023/09/23 03:51:27;;;;;;;16.35;11.68;;;12.50;99.90;;;;;;4955965;29;20201;-72
2023/09/23 03:53:52;;;;;;;15.68;11.10;;;12.50;99.90;;;;;;4955565;29;20191;-72
2023/09/23 03:56:24;;;;;;;15.77;11.15;;;12.40;99.90;;;;;;4922739;29;20221;-72
2023/09/23 03:58:52;;;;;;;17.95;12.25;;;12.40;99.90;;;;;;4937086;29;20202;-73
2023/09/23 04:01:20;;;;;;;17.80;12.32;;;12.40;99.90;;;;;;4949249;28;20229;-71
2023/09/23 04:03:46;;;;;;;17.63;12.20;;;12.40;99.90;;;;;;4938242;29;20206;-72
2023/09/23 04:06:12;;;;;;;19.60;12.43;;;12.40;99.90;;;;;;4954705;29;20715;-73
2023/09/23 04:08:38;;;;;;;15.38;11.85;;;12.40;99.90;;;;;;4938249;29;20234;-74
2023/09/23 04:11:05;;;;;;;19.88;12.93;;;12.40;99.90;;;;;;4955385;29;20341;-73
2023/09/23 04:13:31;;;;;;;19.05;13.65;;;12.40;99.90;;;;;;4947886;29;20183;-72
2023/09/23 04:16:00;;;;;;;17.42;12.82;;;12.40;99.90;;;;;;4955145;29;20245;-72
2023/09/23 04:18:27;;;;;;;17.30;12.23;;;12.40;99.90;;;;;;4955488;29;20201;-72
2023/09/23 04:20:53;;;;;;;18.00;12.70;;;12.40;99.90;;;;;;4954758;29;20191;-72
2023/09/23 04:23:20;;;;;;;18.30;13.00;;;12.40;99.90;;;;;;4951459;29;20188;-72
2023/09/23 04:25:48;;;;;;;17.42;13.48;;;12.40;99.90;;;;;;4953034;29;20195;-71
2023/09/23 04:28:14;;;;;;;18.30;13.48;;;12.40;99.90;;;;;;4955506;29;20651;-71
2023/09/23 04:30:40;;;;;;;18.38;12.82;;;12.40;99.90;;;;;;4922413;29;20197;-71
2023/09/23 04:33:06;;;;;;;17.13;13.30;;;12.40;99.90;;;;;;4954253;29;20265;-71
2023/09/23 04:35:34;;;;;;;16.42;12.13;;;12.50;99.90;;;;;;4954576;29;20309;-71
2023/09/23 04:38:00;;;;;;;17.98;12.75;;;12.50;99.90;;;;;;4955128;29;20199;-71
2023/09/23 04:40:26;;;;;;;14.35;11.68;;;12.50;99.90;;;;;;4955029;29;20190;-71
2023/09/23 04:42:52;;;;;;;18.33;12.45;;;12.50;99.90;;;;;;4954867;29;20190;-72
2023/09/23 04:45:20;;;;;;;16.35;12.00;;;12.50;99.90;;;;;;4949307;29;20306;-72
2023/09/23 04:47:50;;;;;;;16.05;11.20;;;12.50;99.90;;;;;;4922110;29;20594;-71
2023/09/23 04:50:19;;;;;;;14.07;11.30;;;12.50;99.90;;;;;;4954598;29;20191;-72
2023/09/23 04:52:46;;;;;;;13.68;11.48;;;12.50;99.90;;;;;;4937769;29;20685;-72
2023/09/23 04:55:12;;;;;;;13.63;11.27;;;12.50;99.90;;;;;;4948428;29;20193;-73
2023/09/23 04:57:38;;;;;;;15.05;11.23;;;12.50;99.90;;;;;;4954274;29;20713;-74
2023/09/23 05:00:06;;;;;;;13.30;10.35;;;12.50;99.90;;;;;;4952868;28;20191;-74
2023/09/23 05:02:32;;;;;;;13.45;10.50;;;12.60;99.90;;;;;;4948505;29;20182;-75
2023/09/23 05:04:58;;;;;;;11.27;10.02;;;12.60;99.90;;;;;;4949316;29;20186;-73
2023/09/23 05:07:25;;;;;;;13.93;10.65;;;12.60;99.90;;;;;;4945624;29;20257;-72
2023/09/23 05:09:51;;;;;;;16.55;10.38;;;12.60;99.90;;;;;;4936701;29;20198;-74
2023/09/23 05:12:18;;;;;;;16.33;9.88;;;12.60;99.90;;;;;;4949212;29;20269;-71
2023/09/23 05:14:45;;;;;;;15.00;10.02;;;12.60;99.90;;;;;;4948864;28;20706;-71
2023/09/23 05:17:15;;;;;;;12.85;9.93;;;12.60;99.90;;;;;;4954548;29;20678;-71
2023/09/23 05:19:42;;;;;;;14.45;9.88;;;12.60;99.90;;;;;;4941832;29;20198;-70
2023/09/23 05:22:10;;;;;;;12.23;9.80;;;12.60;99.90;;;;;;4945740;29;20222;-71
2023/09/23 05:24:37;;;;;;;12.65;10.20;;;12.60;99.90;;;;;;4951616;29;20627;-71
2023/09/23 05:27:04;;;;;;;14.43;10.68;;;12.60;99.90;;;;;;4954108;29;20246;-73
2023/09/23 05:29:30;;;;;;;15.25;10.48;;;12.60;99.90;;;;;;4939792;28;20651;-75
2023/09/23 05:31:57;;;;;;;16.30;11.43;;;12.50;99.90;;;;;;4941513;29;20297;-74
2023/09/23 05:34:23;;;;;;;13.10;9.98;;;12.50;99.90;;;;;;4952543;29;20182;-69
2023/09/23 05:36:49;;;;;;;15.00;10.90;;;12.40;99.90;;;;;;4935850;29;20229;-69
2023/09/23 05:39:19;;;;;;;15.85;11.32;;;12.40;99.90;;;;;;4953568;29;20202;-70
2023/09/23 05:41:47;;;;;;;14.60;10.85;;;12.30;99.90;;;;;;4953328;29;20651;-72
2023/09/23 05:44:15;;;;;;;14.07;10.60;;;12.30;99.90;;;;;;4946531;29;20190;-71
2023/09/23 05:46:42;;;;;;;17.35;11.45;;;12.30;99.90;;;;;;4920550;29;20194;-71
2023/09/23 05:49:09;;;;;;;14.00;11.43;;;12.20;99.90;;;;;;4936477;29;20186;-69
2023/09/23 05:51:35;;;;;;;16.05;11.35;;;12.20;99.90;;;;;;4947356;29;20203;-73
2023/09/23 05:54:02;;;;;;;15.68;12.15;;;12.20;99.90;;;;;;4948298;29;20190;-72
2023/09/23 05:56:27;;;;;;;16.85;12.00;;;12.20;99.90;;;;;;4953520;29;20214;-76
2023/09/23 05:58:53;;;;;;;15.52;12.65;;;12.20;99.90;;;;;;4953992;29;20217;-74
2023/09/23 06:01:19;;;;;;;18.27;12.80;;;12.20;99.90;;;;;;4936384;29;20206;-73
2023/09/23 06:03:45;;;;;;;18.15;13.20;;;12.20;99.90;;;;;;4953172;29;20651;-75
2023/09/23 06:06:11;;;;;;;20.73;13.50;;;12.20;99.90;;;;;;4935508;29;20202;-76
2023/09/23 06:08:38;;;;;;;21.90;13.90;;;12.20;99.90;;;;;;4935728;29;20230;-71
2023/09/23 06:11:09;;;;;;;20.38;14.38;;;12.20;99.90;;;;;;4953053;29;20241;-73
2023/09/23 06:13:35;;;;;;;20.40;14.57;;;12.20;99.90;;;;;;4955806;29;20210;-74
2023/09/23 06:16:03;;;;;;;19.80;13.95;;;12.20;99.90;;;;;;4951055;29;20638;-73
2023/09/23 06:18:30;;;;;;;20.95;14.50;;;12.20;99.90;;;;;;4940196;29;20370;-71
2023/09/23 06:21:04;;;;;;;19.80;15.40;;;12.20;99.90;;;;;;4957354;29;20236;-74
2023/09/23 06:23:31;;;;;;;24.23;15.90;;;12.20;99.90;;;;;;4940588;29;20197;-73
2023/09/23 06:26:00;;;;;;;22.80;15.50;;;12.30;99.90;;;;;;4939683;29;20213;-73
2023/09/23 06:28:26;;;;;;;22.83;16.08;;;12.30;99.90;;;;;;4950906;29;20274;-70
2023/09/23 06:30:52;;;;;;;23.77;15.88;;;12.30;99.90;;;;;;4945151;29;20289;-70
2023/09/23 06:33:19;;;;;;;26.00;17.33;;;12.30;99.90;;;;;;4947907;29;20194;-70
2023/09/23 06:35:45;;;;;;;22.40;16.52;;;12.40;99.90;;;;;;4953403;29;20679;-71
2023/09/23 06:38:12;;;;;;;21.75;16.75;;;12.40;99.90;;;;;;4954380;29;20245;-71
2023/09/23 06:40:38;;;;;;;23.92;16.70;;;12.40;99.90;;;;;;4957247;29;20273;-69
2023/09/23 06:43:05;;;;;;;26.58;18.70;;;12.40;99.90;;;;;;4939820;29;20186;-69
2023/09/23 06:45:31;;;;;;;22.58;17.88;;;12.50;99.90;;;;;;4955578;29;20214;-70
2023/09/23 06:47:56;;;;;;;26.27;19.77;;;12.60;99.90;;;;;;4951930;29;20281;-73
2023/09/23 06:50:22;;;;;;;26.95;19.88;;;12.60;99.90;;;;;;4954989;29;20191;-71
2023/09/23 06:52:48;;;;;;;28.70;20.05;;;12.70;99.90;;;;;;4956669;29;20226;-73
2023/09/23 06:55:14;;;;;;;28.63;20.40;;;12.80;99.90;;;;;;4956859;29;20214;-72
2023/09/23 06:57:40;;;;;;;30.17;20.35;;;12.90;99.90;;;;;;4951140;29;20666;-74
2023/09/23 07:00:07;;;;;;;29.77;21.02;;;13.00;99.90;;;;;;4956268;29;20230;-72
2023/09/23 07:02:36;;;;;;;30.88;20.75;;;13.10;99.90;;;;;;4956408;29;20191;-72
2023/09/23 07:05:03;;;;;;;30.42;21.17;;;13.20;99.90;;;;;;4956038;29;20191;-73
2023/09/23 07:07:29;;;;;;;25.83;20.42;;;13.30;99.90;;;;;;4934096;29;20798;-73
2023/09/23 07:09:55;;;;;;;31.77;21.38;;;13.40;99.90;;;;;;4942614;28;20277;-72
2023/09/23 07:12:21;;;;;;;30.25;21.38;;;13.50;99.90;;;;;;4939464;29;20560;-73
2023/09/23 07:14:47;;;;;;;28.48;20.17;;;13.50;99.90;;;;;;4955975;29;20194;-73
2023/09/23 07:17:13;;;;;;;27.23;20.85;;;13.60;99.90;;;;;;4954829;29;20218;-74
2023/09/23 07:19:38;;;;;;;26.25;20.77;;;13.70;99.90;;;;;;4950514;29;20198;-74
2023/09/23 07:22:04;;;;;;;28.10;20.60;;;13.70;99.90;;;;;;4955752;29;20183;-73
2023/09/23 07:24:34;;;;;;;26.50;19.60;;;13.80;99.90;;;;;;4955131;28;20186;-73
2023/09/23 07:27:00;;;;;;;25.55;18.35;;;13.80;99.90;;;;;;4938916;29;20269;-73
2023/09/23 07:29:26;;;;;;;30.42;19.73;;;13.90;99.90;;;;;;4949350;29;20294;-71
2023/09/23 07:31:55;;;;;;;28.15;19.08;;;13.90;99.90;;;;;;4954619;29;20183;-75
2023/09/23 07:34:21;;;;;;;24.70;18.80;;;14.00;99.90;;;;;;4938434;29;20191;-74
2023/09/23 07:36:47;;;;;;;27.50;19.77;;;14.00;99.90;;;;;;4955574;29;20226;-73
2023/09/23 07:39:12;;;;;;;23.80;18.15;;;14.10;99.90;;;;;;4934627;29;20197;-73
2023/09/23 07:41:39;;;;;;;26.77;18.13;;;14.10;99.90;;;;;;4952052;29;20277;-72
2023/09/23 07:44:05;;;;;;;25.50;18.23;;;14.20;99.90;;;;;;4956094;29;20186;-73
2023/09/23 07:46:32;;;;;;;27.73;18.00;;;14.20;99.90;;;;;;4938502;29;20545;-72
2023/09/23 07:48:58;;;;;;;27.95;18.25;;;14.20;99.90;;;;;;4954839;29;20229;-73
2023/09/23 07:51:24;;;;;;;24.08;17.58;;;14.30;99.90;;;;;;4955556;29;20198;-73
2023/09/23 07:53:53;;;;;;;23.02;17.52;;;14.30;99.90;;;;;;4955123;29;20545;-73
2023/09/23 07:56:19;;;;;;;25.80;18.90;;;14.40;99.90;;;;;;4954716;29;20225;-73
2023/09/23 07:58:45;;;;;;;28.08;18.02;;;14.50;99.90;;;;;;4955358;29;20234;-72
2023/09/23 08:01:10;;;;;;;23.60;16.77;;;14.50;99.90;;;;;;4934011;29;20250;-75
2023/09/23 08:03:36;;;;;;;25.25;16.42;;;14.60;99.90;;;;;;4952873;28;20205;-72
2023/09/23 08:06:03;;;;;;;25.27;16.70;;;14.80;99.90;;;;;;4954742;29;20726;-71
2023/09/23 08:08:29;;;;;;;18.92;15.07;;;15.00;99.90;;;;;;4954246;29;20353;-74
2023/09/23 08:10:55;;;;;;;21.55;16.15;;;15.10;99.90;;;;;;4952782;29;20303;-73
2023/09/23 08:13:22;;;;;;;19.98;15.50;;;15.20;99.90;;;;;;4950600;28;20230;-71
2023/09/23 08:15:47;;;;;;;25.25;16.38;;;15.30;99.90;;;;;;4938205;29;20222;-74
2023/09/23 08:18:14;;;;;;;20.02;15.15;;;15.40;99.90;;;;;;4918811;29;20222;-71
2023/09/23 08:20:40;;;;;;;21.20;15.57;;;15.40;99.90;;;;;;4947889;29;20206;-74
2023/09/23 08:23:06;;;;;;;18.17;14.90;;;15.50;99.90;;;;;;4949962;29;20191;-74
2023/09/23 08:25:35;;;;;;;18.90;14.30;;;15.50;99.90;;;;;;4937882;29;20209;-73
2023/09/23 08:28:02;;;;;;;22.38;15.32;;;15.50;99.90;;;;;;4954472;29;20259;-70
2023/09/23 08:30:29;;;;;;;19.15;14.48;;;15.60;99.90;;;;;;4930202;29;20301;-70
2023/09/23 08:32:55;;;;;;;22.90;16.15;;;15.60;99.90;;;;;;4934699;29;20186;-71
2023/09/23 08:35:21;;;;;;;22.13;14.90;;;15.70;99.90;;;;;;4953013;28;20226;-76
2023/09/23 08:37:47;;;;;;;20.02;14.07;;;15.70;99.90;;;;;;4954345;29;20598;-73
2023/09/23 08:40:16;;;;;;;17.85;13.77;;;15.70;99.90;;;;;;4955192;29;20720;-69
2023/09/23 08:42:42;;;;;;;17.13;12.82;;;15.70;99.90;;;;;;4952975;29;20214;-74
2023/09/23 08:45:09;;;;;;;19.98;13.13;;;15.70;99.90;;;;;;4946278;29;20572;-75
2023/09/23 08:47:37;;;;;;;18.80;13.23;;;15.70;99.90;;;;;;4949824;29;20198;-73
2023/09/23 08:50:10;;;;;;;18.60;13.73;;;15.70;99.90;;;;;;4949487;29;20258;-72
2023/09/23 08:52:37;;;;;;;23.10;13.20;;;15.80;99.90;;;;;;4933891;29;20210;-73
2023/09/23 08:55:04;;;;;;;17.38;12.27;;;15.80;99.90;;;;;;4936106;29;20647;-71
2023/09/23 08:57:31;;;;;;;16.15;11.65;;;15.80;99.90;;;;;;4954270;29;20233;-74
2023/09/23 08:59:57;;;;;;;17.50;11.90;;;15.80;99.90;;;;;;4936676;29;20631;-73
2023/09/23 09:02:28;;;;;;;17.98;10.82;;;15.90;99.90;;;;;;4935604;29;20215;-72
2023/09/23 09:04:55;;;;;;;13.93;10.15;;;15.90;99.90;;;;;;4916456;29;20194;-72
2023/09/23 09:07:34;;;;;;;15.23;10.07;;;16.00;99.90;;;;;;4951118;29;20594;-73
2023/09/23 09:10:00;;;;;;;14.13;9.07;;;16.00;99.90;;;;;;4952139;28;20242;-72
2023/09/23 09:12:27;;;;;;;13.65;8.45;;;16.10;99.90;;;;;;4967855;28;20194;-73
2023/09/23 09:14:53;;;;;;;17.08;8.55;;;16.20;99.90;;;;;;4949133;29;20193;-73
2023/09/23 09:17:19;;;;;;;12.73;7.93;;;16.30;99.90;;;;;;4969030;28;20238;-73
2023/09/23 09:19:45;;;;;;;12.93;7.35;;;16.30;99.90;;;;;;4935156;29;20194;-74
2023/09/23 09:22:13;;;;;;;13.45;6.88;;;16.40;99.90;;;;;;4950088;29;20221;-74
2023/09/23 09:24:40;;;;;;;11.50;7.03;;;16.40;99.90;;;;;;4948750;29;20190;-72
2023/09/23 09:27:15;;;;;;;11.98;7.25;;;16.40;99.90;;;;;;4949099;29;20187;-71
2023/09/23 09:29:42;;;;;;;10.38;7.07;;;16.50;99.90;;;;;;4954112;29;20596;-73
2023/09/23 09:32:10;;;;;;;13.00;7.40;;;16.60;99.90;;;;;;4954096;29;20194;-72
2023/09/23 09:34:47;;;;;;;9.18;6.50;;;16.70;99.90;;;;;;4952639;29;20179;-73
2023/09/23 09:37:15;;;;;;;15.25;6.88;;;16.80;99.90;;;;;;4935745;29;20207;-72
2023/09/23 09:40:14;;;;;;;11.65;6.25;;;16.90;99.90;;;;;;4953484;29;20534;-72
2023/09/23 09:42:46;;;;;;;7.85;5.35;;;17.00;99.90;;;;;;4943111;29;20199;-73
2023/09/23 09:45:14;;;;;;;11.40;5.50;;;16.90;99.90;;;;;;4953074;29;20207;-72
2023/09/23 09:47:43;;;;;;;8.55;4.82;;;16.90;99.90;;;;;;4946756;28;20214;-75
2023/09/23 09:50:09;;;;;;;10.20;4.60;;;17.00;99.90;;;;;;4947497;29;20639;-71
2023/09/23 09:52:38;;;;;;;10.77;4.63;;;17.10;99.90;;;;;;4953431;29;20186;-71
2023/09/23 09:55:07;;;;;;;7.97;4.47;;;17.10;99.90;;;;;;4930138;29;20186;-72
2023/09/23 09:57:32;;;;;;;6.95;3.78;;;17.20;99.90;;;;;;4935545;29;20547;-70
2023/09/23 10:00:00;;;;;;;9.38;3.92;;;17.20;99.90;;;;;;4952687;29;20406;-70
2023/09/23 10:02:26;;;;;;;10.65;4.20;;;17.10;99.90;;;;;;4953123;29;20190;-72
2023/09/23 10:04:53;;;;;;;6.70;3.80;;;17.10;99.90;;;;;;4936034;29;21409;-71
2023/09/23 10:07:23;;;;;;;6.90;3.47;;;17.20;99.90;;;;;;4949568;29;20245;-72
2023/09/23 10:09:56;;;;;;;7.03;3.22;;;17.20;99.90;;;;;;4951077;29;20217;-70
2023/09/23 10:12:25;;;;;;;5.93;3.00;;;17.30;99.90;;;;;;4937431;29;20198;-71
2023/09/23 10:14:55;;;;;;;10.02;3.20;;;17.60;99.90;;;;;;4953178;29;20186;-71
2023/09/23 10:17:31;;;;;;;6.38;3.13;;;17.70;99.90;;;;;;4951037;29;20568;-72
2023/09/23 10:19:57;;;;;;;7.70;3.20;;;17.90;99.90;;;;;;4950787;29;20197;-71
2023/09/23 10:22:23;;;;;;;8.20;3.42;;;18.00;99.90;;;;;;4953054;29;20193;-71
2023/09/23 10:25:01;;;;;;;7.60;3.00;;;18.00;99.90;;;;;;4952786;29;20194;-72
2023/09/23 10:27:28;;;;;;;8.05;3.22;;;18.00;99.90;;;;;;4952327;29;20193;-70
2023/09/23 10:29:54;;;;;;;8.82;3.05;;;18.00;99.90;;;;;;4945872;29;20546;-71
2023/09/23 10:32:20;;;;;;;11.85;3.50;;;17.90;99.90;;;;;;4951013;29;20194;-72
2023/09/23 10:34:47;;;;;;;7.35;3.08;;;17.80;99.90;;;;;;4936729;29;20195;-72
2023/09/23 10:37:22;;;;;;;6.03;3.70;;;17.70;99.90;;;;;;4950452;29;20210;-72
2023/09/23 10:39:48;;;;;;;6.47;3.60;;;17.60;99.90;;;;;;4930370;29;20683;-73
2023/09/23 10:42:14;;;;;;;7.20;3.30;;;17.60;99.90;;;;;;4953149;29;20201;-74
2023/09/23 10:44:40;;;;;;;7.78;3.20;;;17.50;99.90;;;;;;4953030;29;20198;-72
2023/09/23 10:47:07;;;;;;;5.45;2.95;;;17.50;99.90;;;;;;4925356;29;20183;-72
2023/09/23 10:49:33;;;;;;;6.07;3.30;;;17.40;99.90;;;;;;4947349;29;20195;-73
2023/09/23 10:51:58;;;;;;;8.63;3.72;;;17.30;99.90;;;;;;4935604;29;20213;-72
2023/09/23 10:54:24;;;;;;;7.57;4.22;;;17.30;99.90;;;;;;4953027;29;20282;-72
2023/09/23 10:56:52;;;;;;;6.03;3.53;;;17.30;99.90;;;;;;4952660;29;20706;-72
2023/09/23 10:59:18;;;;;;;5.88;3.60;;;17.30;99.90;;;;;;4956213;28;20198;-73
2023/09/23 11:01:45;;;;;;;7.22;3.58;;;17.40;99.90;;;;;;4938512;29;20278;-73
2023/09/23 11:04:11;;;;;;;6.85;3.75;;;17.40;99.90;;;;;;4909862;29;20196;-68
2023/09/23 11:06:37;;;;;;;5.40;3.70;;;17.50;99.90;;;;;;4914792;29;20556;-72
2023/09/23 11:09:06;;;;;;;7.38;3.50;;;17.60;99.90;;;;;;4950417;29;20242;-70
2023/09/23 11:11:36;;;;;;;6.18;3.05;;;17.50;99.90;;;;;;4932434;29;20183;-69
2023/09/23 11:14:11;;;;;;;6.68;3.05;;;17.50;99.90;;;;;;4953930;28;20186;-72
2023/09/23 11:16:41;;;;;;;9.70;4.38;;;17.40;99.90;;;;;;4926266;29;20209;-70
2023/09/23 11:19:07;;;;;;;7.80;3.70;;;17.40;99.90;;;;;;4953234;29;20199;-69
2023/09/23 11:21:42;;;;;;;7.53;3.85;;;17.40;99.90;;;;;;4965663;28;20182;-69
2023/09/23 11:24:08;;;;;;;12.45;8.63;;;17.40;99.90;;;;;;4932691;29;20547;-68
2023/09/23 11:26:39;;;;;;;10.02;5.15;;;17.50;99.90;;;;;;4938846;29;20214;-70
2023/09/23 11:29:05;;;;;;;8.20;4.18;;;17.50;99.90;;;;;;4952187;29;20651;-70
2023/09/23 11:31:31;;;;;;;10.07;5.82;;;17.60;99.90;;;;;;4935611;29;20209;-70
2023/09/23 11:33:57;;;;;;;14.82;8.15;;;17.60;99.90;;;;;;4938843;29;20675;-70
2023/09/23 11:36:23;;;;;;;20.88;11.43;;;17.70;99.90;;;;;;4954889;29;20217;-69
2023/09/23 11:38:49;;;;;;;18.38;7.18;;;17.70;99.90;;;;;;4954616;29;20291;-70
2023/09/23 11:41:16;;;;;;;16.20;6.13;;;17.80;99.90;;;;;;4951192;29;20206;-71
2023/09/23 11:43:42;;;;;;;8.35;4.65;;;17.80;99.90;;;;;;4954337;29;20269;-71
2023/09/23 11:46:08;;;;;;;6.05;3.38;;;17.90;99.90;;;;;;4955757;29;20643;-70
2023/09/23 11:48:35;;;;;;;16.55;10.20;;;17.80;99.90;;;;;;4955864;29;20190;-68
2023/09/23 11:51:01;;;;;;;11.82;7.22;;;17.70;99.90;;;;;;4952582;29;20190;-69
2023/09/23 11:53:27;;;;;;;23.10;10.15;;;17.70;99.90;;;;;;4967332;28;20787;-69
2023/09/23 11:55:53;;;;;;;15.45;9.63;;;17.60;99.90;;;;;;4938080;29;20218;-69
2023/09/23 11:58:19;;;;;;;69.43;38.90;;;17.50;99.90;;;;;;4955755;29;20214;-69
2023/09/23 12:00:47;;;;;;;18.15;9.30;;;17.50;99.90;;;;;;4951762;29;20187;-70
2023/09/23 12:03:18;;;;;;;10.93;4.97;;;17.50;99.90;;;;;;4935449;29;20190;-70
2023/09/23 12:05:45;;;;;;;9.60;5.88;;;17.40;99.90;;;;;;4955413;29;20198;-69
2023/09/23 12:08:10;;;;;;;5.88;2.83;;;17.50;99.90;;;;;;4937013;29;20226;-69
2023/09/23 12:10:36;;;;;;;3.60;2.50;;;17.50;99.90;;;;;;4954201;28;20708;-69
2023/09/23 12:13:05;;;;;;;4.03;2.25;;;17.50;99.90;;;;;;4954910;29;20690;-69
2023/09/23 12:15:34;;;;;;;4.65;2.30;;;17.50;99.90;;;;;;4955520;29;20285;-70
2023/09/23 12:18:01;;;;;;;3.15;1.63;;;17.50;99.90;;;;;;4954316;28;20191;-68
2023/09/23 12:20:27;;;;;;;10.27;6.07;;;17.60;99.90;;;;;;4955425;29;20208;-70
2023/09/23 12:22:53;;;;;;;5.78;3.30;;;17.60;99.90;;;;;;4950683;29;20241;-70
2023/09/23 12:25:19;;;;;;;3.80;2.28;;;17.60;99.90;;;;;;4936201;29;20202;-70
2023/09/23 12:27:46;;;;;;;7.32;2.70;;;17.70;99.90;;;;;;4954612;29;20245;-70
2023/09/23 12:30:17;;;;;;;4.03;2.85;;;17.70;99.90;;;;;;4954430;29;20340;-69
2023/09/23 12:32:43;;;;;;;11.13;6.00;;;17.60;99.90;;;;;;4951385;29;20274;-70
2023/09/23 12:35:11;;;;;;;11.27;6.57;;;17.70;99.90;;;;;;4952364;29;20746;-70
2023/09/23 12:37:37;;;;;;;11.13;5.63;;;17.70;99.90;;;;;;4954291;29;20218;-70